sensor_id;sensor_type;location;lat;lon;timestamp;P1;durP1;ratioP1;P2;durP2;ratioP2
22066;SDS011;72821;49.814;19.034;2023-11-19T00:04:37;19.52;;;9.63;;
22066;SDS011;72821;49.814;19.034;2023-11-19T00:09:43;17.65;;;8.75;;
22066;SDS011;72821;49.814;19.034;2023-11-19T00:14:45;22.70;;;9.63;;
22066;SDS011;72821;49.814;19.034;2023-11-19T00:19:47;18.73;;;9.32;;
22066;SDS011;72821;49.814;19.034;2023-11-19T00:24:50;16.20;;;7.90;;
22066;SDS011;72821;49.814;19.034;2023-11-19T00:29:52;18.38;;;9.50;;
22066;SDS011;72821;49.814;19.034;2023-11-19T00:34:55;16.25;;;8.63;;
22066;SDS011;72821;49.814;19.034;2023-11-19T00:39:57;18.30;;;9.43;;
22066;SDS011;72821;49.814;19.034;2023-11-19T00:45:03;15.55;;;6.90;;
22066;SDS011;72821;49.814;19.034;2023-11-19T00:50:10;15.43;;;7.40;;
22066;SDS011;72821;49.814;19.034;2023-11-19T00:55:13;18.80;;;8.63;;
22066;SDS011;72821;49.814;19.034;2023-11-19T01:00:15;15.30;;;8.15;;
22066;SDS011;72821;49.814;19.034;2023-11-19T01:05:22;12.30;;;6.50;;
22066;SDS011;72821;49.814;19.034;2023-11-19T01:10:24;17.15;;;7.80;;
22066;SDS011;72821;49.814;19.034;2023-11-19T01:15:28;13.65;;;7.05;;
22066;SDS011;72821;49.814;19.034;2023-11-19T01:20:30;14.25;;;7.93;;
22066;SDS011;72821;49.814;19.034;2023-11-19T01:25:32;17.42;;;8.77;;
22066;SDS011;72821;49.814;19.034;2023-11-19T01:30:34;15.60;;;8.55;;
22066;SDS011;72821;49.814;19.034;2023-11-19T01:35:36;18.63;;;9.45;;
22066;SDS011;72821;49.814;19.034;2023-11-19T01:40:38;15.27;;;8.20;;
22066;SDS011;72821;49.814;19.034;2023-11-19T01:45:41;17.45;;;8.32;;
22066;SDS011;72821;49.814;19.034;2023-11-19T01:50:43;12.43;;;6.53;;
22066;SDS011;72821;49.814;19.034;2023-11-19T01:55:46;12.73;;;6.70;;
22066;SDS011;72821;49.814;19.034;2023-11-19T02:00:49;15.20;;;6.93;;
22066;SDS011;72821;49.814;19.034;2023-11-19T02:05:51;16.33;;;8.07;;
22066;SDS011;72821;49.814;19.034;2023-11-19T02:10:54;17.05;;;7.78;;
22066;SDS011;72821;49.814;19.034;2023-11-19T02:15:59;13.10;;;6.85;;
22066;SDS011;72821;49.814;19.034;2023-11-19T02:21:03;12.43;;;6.03;;
22066;SDS011;72821;49.814;19.034;2023-11-19T02:31:19;10.48;;;5.25;;
22066;SDS011;72821;49.814;19.034;2023-11-19T02:36:21;10.88;;;5.35;;
22066;SDS011;72821;49.814;19.034;2023-11-19T02:41:24;10.20;;;5.93;;
22066;SDS011;72821;49.814;19.034;2023-11-19T02:46:26;11.43;;;5.90;;
22066;SDS011;72821;49.814;19.034;2023-11-19T02:51:28;10.25;;;6.03;;
22066;SDS011;72821;49.814;19.034;2023-11-19T02:56:32;11.15;;;5.68;;
22066;SDS011;72821;49.814;19.034;2023-11-19T03:01:38;9.70;;;5.25;;
22066;SDS011;72821;49.814;19.034;2023-11-19T03:06:45;10.07;;;5.38;;
22066;SDS011;72821;49.814;19.034;2023-11-19T03:11:48;8.90;;;5.45;;
22066;SDS011;72821;49.814;19.034;2023-11-19T03:16:51;10.73;;;5.40;;
22066;SDS011;72821;49.814;19.034;2023-11-19T03:21:53;12.25;;;5.80;;
22066;SDS011;72821;49.814;19.034;2023-11-19T03:26:56;15.55;;;7.00;;
22066;SDS011;72821;49.814;19.034;2023-11-19T03:31:58;13.20;;;6.85;;
22066;SDS011;72821;49.814;19.034;2023-11-19T03:37:00;13.60;;;7.28;;
22066;SDS011;72821;49.814;19.034;2023-11-19T03:42:02;16.02;;;8.68;;
22066;SDS011;72821;49.814;19.034;2023-11-19T03:47:05;13.45;;;7.68;;
22066;SDS011;72821;49.814;19.034;2023-11-19T03:52:07;15.23;;;8.27;;
22066;SDS011;72821;49.814;19.034;2023-11-19T03:57:21;16.05;;;8.55;;
22066;SDS011;72821;49.814;19.034;2023-11-19T04:02:23;16.02;;;8.80;;
22066;SDS011;72821;49.814;19.034;2023-11-19T04:07:29;15.02;;;7.97;;
22066;SDS011;72821;49.814;19.034;2023-11-19T04:12:31;14.18;;;7.88;;
22066;SDS011;72821;49.814;19.034;2023-11-19T04:17:33;13.85;;;7.90;;
22066;SDS011;72821;49.814;19.034;2023-11-19T04:22:36;13.93;;;6.70;;
22066;SDS011;72821;49.814;19.034;2023-11-19T04:27:38;14.27;;;7.38;;
22066;SDS011;72821;49.814;19.034;2023-11-19T04:32:40;11.40;;;6.50;;
22066;SDS011;72821;49.814;19.034;2023-11-19T04:37:43;10.02;;;6.15;;
22066;SDS011;72821;49.814;19.034;2023-11-19T04:42:46;9.65;;;5.50;;
22066;SDS011;72821;49.814;19.034;2023-11-19T04:47:48;10.70;;;5.43;;
22066;SDS011;72821;49.814;19.034;2023-11-19T04:52:50;11.40;;;6.30;;
22066;SDS011;72821;49.814;19.034;2023-11-19T04:57:53;10.82;;;5.78;;
22066;SDS011;72821;49.814;19.034;2023-11-19T05:02:56;11.98;;;6.68;;
22066;SDS011;72821;49.814;19.034;2023-11-19T05:07:58;10.93;;;6.00;;
22066;SDS011;72821;49.814;19.034;2023-11-19T05:13:00;12.30;;;6.30;;
22066;SDS011;72821;49.814;19.034;2023-11-19T05:18:02;12.48;;;7.25;;
22066;SDS011;72821;49.814;19.034;2023-11-19T05:23:06;12.57;;;6.78;;
22066;SDS011;72821;49.814;19.034;2023-11-19T05:28:22;12.45;;;7.20;;
22066;SDS011;72821;49.814;19.034;2023-11-19T05:33:26;12.05;;;6.00;;
22066;SDS011;72821;49.814;19.034;2023-11-19T05:38:28;11.45;;;6.35;;
22066;SDS011;72821;49.814;19.034;2023-11-19T05:43:31;11.77;;;7.18;;
22066;SDS011;72821;49.814;19.034;2023-11-19T05:48:33;12.95;;;7.00;;
22066;SDS011;72821;49.814;19.034;2023-11-19T05:53:35;14.25;;;7.28;;
22066;SDS011;72821;49.814;19.034;2023-11-19T05:58:37;13.32;;;6.93;;
22066;SDS011;72821;49.814;19.034;2023-11-19T06:03:41;12.35;;;6.90;;
22066;SDS011;72821;49.814;19.034;2023-11-19T06:08:45;12.68;;;6.55;;
22066;SDS011;72821;49.814;19.034;2023-11-19T06:13:48;12.05;;;6.45;;
22066;SDS011;72821;49.814;19.034;2023-11-19T06:18:53;13.63;;;7.28;;
22066;SDS011;72821;49.814;19.034;2023-11-19T06:23:55;13.35;;;7.25;;
22066;SDS011;72821;49.814;19.034;2023-11-19T06:28:57;13.65;;;7.60;;
22066;SDS011;72821;49.814;19.034;2023-11-19T06:33:59;15.23;;;7.53;;
22066;SDS011;72821;49.814;19.034;2023-11-19T06:39:02;11.02;;;6.30;;
22066;SDS011;72821;49.814;19.034;2023-11-19T06:44:04;13.85;;;7.18;;
22066;SDS011;72821;49.814;19.034;2023-11-19T06:49:06;11.05;;;6.78;;
22066;SDS011;72821;49.814;19.034;2023-11-19T06:54:09;11.20;;;6.65;;
22066;SDS011;72821;49.814;19.034;2023-11-19T06:59:11;14.65;;;7.38;;
22066;SDS011;72821;49.814;19.034;2023-11-19T07:04:14;13.20;;;7.20;;
22066;SDS011;72821;49.814;19.034;2023-11-19T07:09:16;11.40;;;6.35;;
22066;SDS011;72821;49.814;19.034;2023-11-19T07:14:18;11.02;;;6.10;;
22066;SDS011;72821;49.814;19.034;2023-11-19T07:19:22;14.10;;;7.72;;
22066;SDS011;72821;49.814;19.034;2023-11-19T07:24:25;10.60;;;5.60;;
22066;SDS011;72821;49.814;19.034;2023-11-19T07:29:29;8.50;;;4.72;;
22066;SDS011;72821;49.814;19.034;2023-11-19T07:34:33;9.13;;;4.90;;
22066;SDS011;72821;49.814;19.034;2023-11-19T07:39:35;9.40;;;5.10;;
22066;SDS011;72821;49.814;19.034;2023-11-19T07:44:39;11.52;;;6.30;;
22066;SDS011;72821;49.814;19.034;2023-11-19T07:49:41;9.63;;;5.25;;
22066;SDS011;72821;49.814;19.034;2023-11-19T07:54:46;9.90;;;5.78;;
22066;SDS011;72821;49.814;19.034;2023-11-19T07:59:48;10.95;;;5.70;;
22066;SDS011;72821;49.814;19.034;2023-11-19T08:04:50;10.85;;;5.65;;
22066;SDS011;72821;49.814;19.034;2023-11-19T08:09:53;10.15;;;5.40;;
22066;SDS011;72821;49.814;19.034;2023-11-19T08:14:56;9.93;;;5.28;;
22066;SDS011;72821;49.814;19.034;2023-11-19T08:19:59;9.02;;;4.95;;
22066;SDS011;72821;49.814;19.034;2023-11-19T08:25:02;9.32;;;5.13;;
22066;SDS011;72821;49.814;19.034;2023-11-19T08:30:06;7.90;;;3.95;;
22066;SDS011;72821;49.814;19.034;2023-11-19T08:35:09;6.63;;;3.97;;
22066;SDS011;72821;49.814;19.034;2023-11-19T08:40:12;6.03;;;3.08;;
22066;SDS011;72821;49.814;19.034;2023-11-19T08:45:16;5.95;;;3.53;;
22066;SDS011;72821;49.814;19.034;2023-11-19T08:50:19;7.97;;;4.68;;
22066;SDS011;72821;49.814;19.034;2023-11-19T08:55:21;8.57;;;4.68;;
22066;SDS011;72821;49.814;19.034;2023-11-19T09:00:23;8.20;;;4.32;;
22066;SDS011;72821;49.814;19.034;2023-11-19T09:05:25;8.32;;;4.72;;
22066;SDS011;72821;49.814;19.034;2023-11-19T09:10:27;9.40;;;4.63;;
22066;SDS011;72821;49.814;19.034;2023-11-19T09:15:31;10.18;;;4.70;;
22066;SDS011;72821;49.814;19.034;2023-11-19T09:20:33;7.00;;;4.18;;
22066;SDS011;72821;49.814;19.034;2023-11-19T09:25:40;8.15;;;4.30;;
22066;SDS011;72821;49.814;19.034;2023-11-19T09:30:45;7.78;;;4.38;;
22066;SDS011;72821;49.814;19.034;2023-11-19T09:35:47;9.18;;;4.47;;
22066;SDS011;72821;49.814;19.034;2023-11-19T09:40:51;7.05;;;3.97;;
22066;SDS011;72821;49.814;19.034;2023-11-19T09:45:53;9.07;;;4.00;;
22066;SDS011;72821;49.814;19.034;2023-11-19T09:50:57;8.05;;;3.70;;
22066;SDS011;72821;49.814;19.034;2023-11-19T09:56:00;9.27;;;4.15;;
22066;SDS011;72821;49.814;19.034;2023-11-19T10:01:06;9.48;;;4.43;;
22066;SDS011;72821;49.814;19.034;2023-11-19T10:06:14;8.25;;;4.53;;
22066;SDS011;72821;49.814;19.034;2023-11-19T10:11:17;11.18;;;5.97;;
22066;SDS011;72821;49.814;19.034;2023-11-19T10:16:19;8.32;;;4.53;;
22066;SDS011;72821;49.814;19.034;2023-11-19T10:21:22;9.55;;;4.65;;
22066;SDS011;72821;49.814;19.034;2023-11-19T10:26:25;7.88;;;4.45;;
22066;SDS011;72821;49.814;19.034;2023-11-19T10:31:28;7.43;;;4.32;;
22066;SDS011;72821;49.814;19.034;2023-11-19T10:36:37;7.05;;;3.60;;
22066;SDS011;72821;49.814;19.034;2023-11-19T10:41:42;7.50;;;4.15;;
22066;SDS011;72821;49.814;19.034;2023-11-19T10:46:45;7.72;;;4.07;;
22066;SDS011;72821;49.814;19.034;2023-11-19T10:51:47;9.15;;;4.32;;
22066;SDS011;72821;49.814;19.034;2023-11-19T10:56:52;8.70;;;4.68;;
22066;SDS011;72821;49.814;19.034;2023-11-19T11:01:57;15.87;;;9.27;;
22066;SDS011;72821;49.814;19.034;2023-11-19T11:06:59;9.85;;;5.72;;
22066;SDS011;72821;49.814;19.034;2023-11-19T11:12:04;9.63;;;4.68;;
22066;SDS011;72821;49.814;19.034;2023-11-19T11:17:08;11.32;;;5.88;;
22066;SDS011;72821;49.814;19.034;2023-11-19T11:22:13;8.18;;;3.95;;
22066;SDS011;72821;49.814;19.034;2023-11-19T11:33:06;10.10;;;5.18;;
22066;SDS011;72821;49.814;19.034;2023-11-19T11:38:42;8.38;;;4.13;;
22066;SDS011;72821;49.814;19.034;2023-11-19T11:48:49;8.82;;;5.03;;
22066;SDS011;72821;49.814;19.034;2023-11-19T11:53:53;8.70;;;3.97;;
22066;SDS011;72821;49.814;19.034;2023-11-19T11:58:56;8.15;;;3.92;;
22066;SDS011;72821;49.814;19.034;2023-11-19T12:03:58;7.65;;;3.50;;
22066;SDS011;72821;49.814;19.034;2023-11-19T12:09:00;5.40;;;3.30;;
22066;SDS011;72821;49.814;19.034;2023-11-19T12:14:03;5.65;;;3.10;;
22066;SDS011;72821;49.814;19.034;2023-11-19T12:19:08;5.25;;;3.20;;
22066;SDS011;72821;49.814;19.034;2023-11-19T12:24:10;6.07;;;3.10;;
22066;SDS011;72821;49.814;19.034;2023-11-19T12:29:13;6.38;;;3.08;;
22066;SDS011;72821;49.814;19.034;2023-11-19T12:34:15;6.75;;;3.10;;
22066;SDS011;72821;49.814;19.034;2023-11-19T12:39:17;6.05;;;2.95;;
22066;SDS011;72821;49.814;19.034;2023-11-19T12:44:21;5.10;;;2.63;;
22066;SDS011;72821;49.814;19.034;2023-11-19T12:49:23;7.85;;;3.00;;
22066;SDS011;72821;49.814;19.034;2023-11-19T12:54:35;3.58;;;2.08;;
22066;SDS011;72821;49.814;19.034;2023-11-19T12:59:38;3.35;;;1.85;;
22066;SDS011;72821;49.814;19.034;2023-11-19T13:04:40;4.85;;;2.55;;
22066;SDS011;72821;49.814;19.034;2023-11-19T13:09:42;4.80;;;2.60;;
22066;SDS011;72821;49.814;19.034;2023-11-19T13:14:46;4.80;;;3.10;;
22066;SDS011;72821;49.814;19.034;2023-11-19T13:19:48;9.00;;;4.60;;
22066;SDS011;72821;49.814;19.034;2023-11-19T13:24:52;6.70;;;3.38;;
22066;SDS011;72821;49.814;19.034;2023-11-19T13:29:54;7.43;;;3.53;;
22066;SDS011;72821;49.814;19.034;2023-11-19T13:34:56;6.63;;;4.05;;
22066;SDS011;72821;49.814;19.034;2023-11-19T13:39:59;6.55;;;3.70;;
22066;SDS011;72821;49.814;19.034;2023-11-19T13:45:01;7.95;;;3.40;;
22066;SDS011;72821;49.814;19.034;2023-11-19T13:50:04;4.07;;;2.50;;
22066;SDS011;72821;49.814;19.034;2023-11-19T13:55:08;2.08;;;1.10;;
22066;SDS011;72821;49.814;19.034;2023-11-19T14:00:12;2.78;;;1.25;;
22066;SDS011;72821;49.814;19.034;2023-11-19T14:05:15;3.30;;;1.67;;
22066;SDS011;72821;49.814;19.034;2023-11-19T14:10:39;3.38;;;1.83;;
22066;SDS011;72821;49.814;19.034;2023-11-19T14:15:42;4.53;;;1.75;;
22066;SDS011;72821;49.814;19.034;2023-11-19T14:20:46;2.75;;;1.33;;
22066;SDS011;72821;49.814;19.034;2023-11-19T14:25:48;2.75;;;1.30;;
22066;SDS011;72821;49.814;19.034;2023-11-19T14:30:51;3.33;;;1.33;;
22066;SDS011;72821;49.814;19.034;2023-11-19T14:35:59;3.83;;;1.50;;
22066;SDS011;72821;49.814;19.034;2023-11-19T14:41:01;2.55;;;1.20;;
22066;SDS011;72821;49.814;19.034;2023-11-19T14:46:03;2.95;;;1.33;;
22066;SDS011;72821;49.814;19.034;2023-11-19T14:51:06;2.03;;;0.90;;
22066;SDS011;72821;49.814;19.034;2023-11-19T14:56:11;2.83;;;1.10;;
22066;SDS011;72821;49.814;19.034;2023-11-19T15:06:22;2.33;;;1.10;;
22066;SDS011;72821;49.814;19.034;2023-11-19T15:11:25;2.80;;;1.27;;
22066;SDS011;72821;49.814;19.034;2023-11-19T15:17:22;3.15;;;1.30;;
22066;SDS011;72821;49.814;19.034;2023-11-19T15:22:26;1.73;;;1.10;;
22066;SDS011;72821;49.814;19.034;2023-11-19T15:27:29;2.03;;;1.20;;
22066;SDS011;72821;49.814;19.034;2023-11-19T15:32:31;2.83;;;1.10;;
22066;SDS011;72821;49.814;19.034;2023-11-19T15:37:33;3.30;;;1.35;;
22066;SDS011;72821;49.814;19.034;2023-11-19T15:42:37;3.75;;;2.40;;
22066;SDS011;72821;49.814;19.034;2023-11-19T15:47:39;3.83;;;1.75;;
22066;SDS011;72821;49.814;19.034;2023-11-19T15:52:41;2.70;;;1.30;;
22066;SDS011;72821;49.814;19.034;2023-11-19T15:57:45;2.40;;;0.98;;
22066;SDS011;72821;49.814;19.034;2023-11-19T16:02:48;3.08;;;1.25;;
22066;SDS011;72821;49.814;19.034;2023-11-19T16:07:52;3.00;;;0.98;;
22066;SDS011;72821;49.814;19.034;2023-11-19T16:12:57;3.50;;;1.20;;
22066;SDS011;72821;49.814;19.034;2023-11-19T16:17:59;3.15;;;1.60;;
22066;SDS011;72821;49.814;19.034;2023-11-19T16:23:02;4.38;;;1.58;;
22066;SDS011;72821;49.814;19.034;2023-11-19T16:28:08;3.53;;;1.90;;
22066;SDS011;72821;49.814;19.034;2023-11-19T16:33:10;4.72;;;2.30;;
22066;SDS011;72821;49.814;19.034;2023-11-19T16:38:59;4.10;;;3.08;;
22066;SDS011;72821;49.814;19.034;2023-11-19T16:49:10;4.57;;;2.03;;
22066;SDS011;72821;49.814;19.034;2023-11-19T16:54:13;12.88;;;8.02;;
22066;SDS011;72821;49.814;19.034;2023-11-19T16:59:16;16.60;;;13.48;;
22066;SDS011;72821;49.814;19.034;2023-11-19T17:04:19;7.18;;;6.47;;
22066;SDS011;72821;49.814;19.034;2023-11-19T17:09:22;7.47;;;6.55;;
22066;SDS011;72821;49.814;19.034;2023-11-19T17:14:26;4.18;;;2.55;;
22066;SDS011;72821;49.814;19.034;2023-11-19T17:19:31;4.65;;;2.67;;
22066;SDS011;72821;49.814;19.034;2023-11-19T17:24:34;2.95;;;1.35;;
22066;SDS011;72821;49.814;19.034;2023-11-19T17:29:36;4.25;;;2.10;;
22066;SDS011;72821;49.814;19.034;2023-11-19T17:34:42;2.95;;;1.70;;
22066;SDS011;72821;49.814;19.034;2023-11-19T17:39:45;2.80;;;1.30;;
22066;SDS011;72821;49.814;19.034;2023-11-19T17:44:48;2.67;;;1.10;;
22066;SDS011;72821;49.814;19.034;2023-11-19T17:49:51;4.30;;;1.60;;
22066;SDS011;72821;49.814;19.034;2023-11-19T17:54:55;7.15;;;2.22;;
22066;SDS011;72821;49.814;19.034;2023-11-19T17:59:57;4.82;;;1.80;;
22066;SDS011;72821;49.814;19.034;2023-11-19T18:04:59;4.80;;;2.05;;
22066;SDS011;72821;49.814;19.034;2023-11-19T18:10:03;5.45;;;2.08;;
22066;SDS011;72821;49.814;19.034;2023-11-19T18:15:08;3.58;;;1.83;;
22066;SDS011;72821;49.814;19.034;2023-11-19T18:20:15;5.07;;;1.70;;
22066;SDS011;72821;49.814;19.034;2023-11-19T18:25:18;25.23;;;11.15;;
22066;SDS011;72821;49.814;19.034;2023-11-19T18:30:21;3.30;;;1.80;;
22066;SDS011;72821;49.814;19.034;2023-11-19T18:35:23;5.90;;;2.08;;
22066;SDS011;72821;49.814;19.034;2023-11-19T18:40:26;5.10;;;2.72;;
22066;SDS011;72821;49.814;19.034;2023-11-19T18:45:29;6.20;;;2.28;;
22066;SDS011;72821;49.814;19.034;2023-11-19T18:50:31;3.63;;;1.77;;
22066;SDS011;72821;49.814;19.034;2023-11-19T18:55:53;5.80;;;2.00;;
22066;SDS011;72821;49.814;19.034;2023-11-19T19:00:55;5.82;;;2.10;;
22066;SDS011;72821;49.814;19.034;2023-11-19T19:05:58;6.38;;;1.98;;
22066;SDS011;72821;49.814;19.034;2023-11-19T19:11:01;7.88;;;1.85;;
22066;SDS011;72821;49.814;19.034;2023-11-19T19:16:07;6.47;;;2.53;;
22066;SDS011;72821;49.814;19.034;2023-11-19T19:21:10;13.98;;;6.57;;
22066;SDS011;72821;49.814;19.034;2023-11-19T19:26:12;7.60;;;3.28;;
22066;SDS011;72821;49.814;19.034;2023-11-19T19:31:15;6.80;;;2.50;;
22066;SDS011;72821;49.814;19.034;2023-11-19T19:36:20;5.38;;;2.45;;
22066;SDS011;72821;49.814;19.034;2023-11-19T19:41:25;5.18;;;2.60;;
22066;SDS011;72821;49.814;19.034;2023-11-19T19:46:30;8.25;;;3.55;;
22066;SDS011;72821;49.814;19.034;2023-11-19T19:51:33;4.47;;;2.20;;
22066;SDS011;72821;49.814;19.034;2023-11-19T19:56:35;5.70;;;2.05;;
22066;SDS011;72821;49.814;19.034;2023-11-19T20:01:38;6.78;;;2.50;;
22066;SDS011;72821;49.814;19.034;2023-11-19T20:06:40;6.60;;;2.55;;
22066;SDS011;72821;49.814;19.034;2023-11-19T20:11:42;5.75;;;2.33;;
22066;SDS011;72821;49.814;19.034;2023-11-19T20:16:48;5.50;;;2.17;;
22066;SDS011;72821;49.814;19.034;2023-11-19T20:22:11;4.38;;;2.13;;
22066;SDS011;72821;49.814;19.034;2023-11-19T20:27:14;3.38;;;1.70;;
22066;SDS011;72821;49.814;19.034;2023-11-19T20:32:22;5.25;;;2.08;;
22066;SDS011;72821;49.814;19.034;2023-11-19T20:37:35;3.33;;;1.73;;
22066;SDS011;72821;49.814;19.034;2023-11-19T20:42:39;4.78;;;2.38;;
22066;SDS011;72821;49.814;19.034;2023-11-19T20:47:41;8.13;;;2.72;;
22066;SDS011;72821;49.814;19.034;2023-11-19T20:52:48;6.03;;;3.17;;
22066;SDS011;72821;49.814;19.034;2023-11-19T20:57:52;6.38;;;3.38;;
22066;SDS011;72821;49.814;19.034;2023-11-19T21:02:57;5.38;;;2.72;;
22066;SDS011;72821;49.814;19.034;2023-11-19T21:08:00;4.85;;;2.10;;
22066;SDS011;72821;49.814;19.034;2023-11-19T21:13:02;5.10;;;2.38;;
22066;SDS011;72821;49.814;19.034;2023-11-19T21:18:05;5.38;;;2.20;;
22066;SDS011;72821;49.814;19.034;2023-11-19T21:23:07;6.72;;;2.50;;
22066;SDS011;72821;49.814;19.034;2023-11-19T21:28:09;6.35;;;3.15;;
22066;SDS011;72821;49.814;19.034;2023-11-19T21:33:11;6.30;;;1.92;;
22066;SDS011;72821;49.814;19.034;2023-11-19T21:38:13;5.65;;;2.45;;
22066;SDS011;72821;49.814;19.034;2023-11-19T21:43:16;4.97;;;2.33;;
22066;SDS011;72821;49.814;19.034;2023-11-19T21:48:22;4.93;;;2.05;;
22066;SDS011;72821;49.814;19.034;2023-11-19T21:53:24;5.97;;;2.30;;
22066;SDS011;72821;49.814;19.034;2023-11-19T21:58:26;4.40;;;1.73;;
22066;SDS011;72821;49.814;19.034;2023-11-19T22:03:29;7.47;;;2.28;;
22066;SDS011;72821;49.814;19.034;2023-11-19T22:08:31;5.72;;;1.70;;
22066;SDS011;72821;49.814;19.034;2023-11-19T22:13:33;6.95;;;1.65;;
22066;SDS011;72821;49.814;19.034;2023-11-19T22:18:39;4.55;;;1.70;;
22066;SDS011;72821;49.814;19.034;2023-11-19T22:23:41;8.40;;;2.50;;
22066;SDS011;72821;49.814;19.034;2023-11-19T22:28:43;5.35;;;2.13;;
22066;SDS011;72821;49.814;19.034;2023-11-19T22:33:46;5.47;;;1.60;;
22066;SDS011;72821;49.814;19.034;2023-11-19T22:38:50;5.40;;;2.03;;
22066;SDS011;72821;49.814;19.034;2023-11-19T22:43:53;5.13;;;2.08;;
22066;SDS011;72821;49.814;19.034;2023-11-19T22:48:55;4.13;;;1.70;;
22066;SDS011;72821;49.814;19.034;2023-11-19T22:53:57;5.93;;;1.77;;
22066;SDS011;72821;49.814;19.034;2023-11-19T22:58:59;4.95;;;1.73;;
22066;SDS011;72821;49.814;19.034;2023-11-19T23:04:01;4.72;;;1.70;;
22066;SDS011;72821;49.814;19.034;2023-11-19T23:09:04;5.70;;;1.92;;
22066;SDS011;72821;49.814;19.034;2023-11-19T23:14:06;4.80;;;1.60;;
22066;SDS011;72821;49.814;19.034;2023-11-19T23:19:13;5.45;;;1.50;;
22066;SDS011;72821;49.814;19.034;2023-11-19T23:24:15;4.18;;;1.50;;
22066;SDS011;72821;49.814;19.034;2023-11-19T23:29:17;4.22;;;1.30;;
22066;SDS011;72821;49.814;19.034;2023-11-19T23:34:20;5.35;;;1.58;;
22066;SDS011;72821;49.814;19.034;2023-11-19T23:39:37;2.65;;;1.17;;
22066;SDS011;72821;49.814;19.034;2023-11-19T23:44:40;5.18;;;1.90;;
22066;SDS011;72821;49.814;19.034;2023-11-19T23:49:42;5.78;;;2.80;;
22066;SDS011;72821;49.814;19.034;2023-11-19T23:54:44;5.40;;;1.80;;
22066;SDS011;72821;49.814;19.034;2023-11-19T23:59:46;4.15;;;1.67;;
